createdAt,value
2022-07-27T00:01:16.678Z,69.21
2022-07-27T00:03:45.522Z,70.00
2022-07-27T00:06:14.804Z,68.88
2022-07-27T00:08:42.575Z,70.43
2022-07-27T00:11:11.085Z,69.90
2022-07-27T00:13:39.014Z,70.43
2022-07-27T00:16:07.348Z,71.05
2022-07-27T00:18:35.587Z,69.56
2022-07-27T00:21:03.455Z,69.25
2022-07-27T00:23:31.198Z,69.84
2022-07-27T00:25:59.306Z,70.58
2022-07-27T00:28:27.065Z,70.09
2022-07-27T00:30:54.885Z,68.26
2022-07-27T00:33:23.216Z,69.61
2022-07-27T00:35:50.943Z,69.23
2022-07-27T00:38:18.765Z,70.37
2022-07-27T00:40:46.903Z,69.72
2022-07-27T00:43:15.453Z,69.36
2022-07-27T00:45:43.228Z,70.05
2022-07-27T00:48:11.399Z,69.61
2022-07-27T00:50:41.905Z,70.36
2022-07-27T00:53:10.002Z,72.94
2022-07-27T00:55:39.685Z,70.91
2022-07-27T00:58:11.047Z,70.63
2022-07-27T01:00:39.445Z,70.83
2022-07-27T01:03:09.012Z,74.34
2022-07-27T01:05:42.475Z,71.55
2022-07-27T01:08:14.332Z,70.11
2022-07-27T01:10:43.638Z,69.31
2022-07-27T01:13:13.162Z,71.14
2022-07-27T01:15:42.376Z,73.25
2022-07-27T01:18:27.124Z,70.23
2022-07-27T01:20:56.265Z,70.20
2022-07-27T01:23:25.524Z,72.56
2022-07-27T01:25:53.765Z,69.22
2022-07-27T01:28:21.973Z,70.43
2022-07-27T01:30:49.893Z,68.65
2022-07-27T01:33:17.864Z,69.74
2022-07-27T01:35:46.401Z,69.59
2022-07-27T01:38:14.119Z,69.98
2022-07-27T01:40:41.905Z,73.80
2022-07-27T01:43:10.267Z,72.99
2022-07-27T01:45:39.590Z,72.69
2022-07-27T01:48:07.304Z,71.08
2022-07-27T01:50:35.583Z,69.24
2022-07-27T01:53:03.435Z,70.45
2022-07-27T01:55:38.426Z,69.19
2022-07-27T01:58:08.405Z,69.38
2022-07-27T02:00:36.876Z,68.33
2022-07-27T02:03:07.040Z,68.60
2022-07-27T02:05:36.185Z,67.21
2022-07-27T02:08:05.975Z,68.45
2022-07-27T02:10:35.304Z,67.70
2022-07-27T02:13:22.922Z,67.05
2022-07-27T02:15:54.792Z,68.09
2022-07-27T02:18:33.001Z,68.27
2022-07-27T02:21:06.370Z,68.77
2022-07-27T02:23:35.310Z,68.85
2022-07-27T02:26:04.414Z,67.13
2022-07-27T02:28:32.946Z,67.77
2022-07-27T02:31:01.136Z,69.94
2022-07-27T02:33:29.047Z,69.30
2022-07-27T02:35:57.323Z,69.49
2022-07-27T02:38:26.102Z,69.10
2022-07-27T02:40:53.864Z,67.72
2022-07-27T02:43:22.022Z,66.94
2022-07-27T02:45:51.941Z,67.40
2022-07-27T02:48:19.833Z,67.89
2022-07-27T02:50:48.244Z,67.01
2022-07-27T02:53:15.973Z,66.48
2022-07-27T02:55:43.726Z,66.64
2022-07-27T02:58:11.881Z,68.83
2022-07-27T03:00:39.633Z,70.46
2022-07-27T03:03:07.456Z,71.08
2022-07-27T03:05:35.575Z,68.45
2022-07-27T03:08:04.239Z,65.94
2022-07-27T03:10:32.704Z,65.92
2022-07-27T03:13:00.856Z,65.30
2022-07-27T03:15:29.859Z,66.24
2022-07-27T03:17:57.744Z,69.20
2022-07-27T03:20:25.995Z,67.99
2022-07-27T03:22:54.523Z,69.73
2022-07-27T03:25:22.584Z,71.97
2022-07-27T03:27:50.783Z,68.53
2022-07-27T03:30:18.701Z,67.31
2022-07-27T03:32:46.634Z,68.58
2022-07-27T03:35:15.363Z,67.01
2022-07-27T03:37:43.258Z,68.67
2022-07-27T03:40:12.042Z,65.45
2022-07-27T03:42:40.484Z,64.95
2022-07-27T03:45:08.862Z,66.42
2022-07-27T03:47:36.665Z,65.62
2022-07-27T03:50:05.143Z,66.00
2022-07-27T03:52:33.053Z,69.22
2022-07-27T03:55:00.823Z,66.06
2022-07-27T03:57:28.833Z,64.02
2022-07-27T03:59:56.642Z,63.61
2022-07-27T04:02:24.516Z,64.21
2022-07-27T04:04:52.625Z,66.15
2022-07-27T04:07:21.073Z,69.01
2022-07-27T04:09:48.912Z,69.86
2022-07-27T04:12:20.072Z,70.04
2022-07-27T04:14:48.125Z,68.31
2022-07-27T04:17:55.126Z,69.73
2022-07-27T04:20:04.844Z,66.29
2022-07-27T04:22:32.472Z,64.48
2022-07-27T04:25:00.228Z,67.60
2022-07-27T04:27:28.263Z,67.73
2022-07-27T04:29:56.084Z,63.99
2022-07-27T04:32:24.027Z,65.41
2022-07-27T04:34:52.080Z,65.92
2022-07-27T04:37:19.874Z,63.76
2022-07-27T04:39:47.791Z,64.05
2022-07-27T04:42:15.944Z,59.89
2022-07-27T04:44:43.777Z,60.70
2022-07-27T04:47:11.504Z,61.71
2022-07-27T04:49:39.794Z,59.98
2022-07-27T04:52:07.628Z,59.58
2022-07-27T04:54:35.394Z,59.49
2022-07-27T04:57:03.503Z,57.68
2022-07-27T04:59:31.232Z,58.95
2022-07-27T05:01:58.963Z,59.26
2022-07-27T05:04:27.167Z,58.27
2022-07-27T05:06:57.515Z,60.57
2022-07-27T05:09:25.323Z,59.58
2022-07-27T05:11:53.488Z,55.60
2022-07-27T05:14:21.926Z,59.87
2022-07-27T05:16:50.664Z,56.73
2022-07-27T05:19:19.040Z,59.14
2022-07-27T05:21:46.845Z,59.07
2022-07-27T05:24:14.634Z,58.61
2022-07-27T05:26:44.545Z,54.34
2022-07-27T05:29:12.568Z,50.19
2022-07-27T05:31:40.655Z,49.46
2022-07-27T05:34:08.814Z,51.35
2022-07-27T05:36:36.783Z,50.72
2022-07-27T05:39:04.553Z,49.80
2022-07-27T05:41:32.913Z,47.41
2022-07-27T05:44:00.645Z,46.75
2022-07-27T05:46:32.499Z,45.47
2022-07-27T05:49:01.023Z,46.52
2022-07-27T05:51:30.288Z,45.76
2022-07-27T05:53:59.136Z,45.92
2022-07-27T05:56:27.796Z,44.87
2022-07-27T05:58:55.644Z,42.53
2022-07-27T06:01:23.604Z,43.14
2022-07-27T06:03:51.775Z,41.84
2022-07-27T06:06:38.165Z,42.44
2022-07-27T06:09:06.584Z,42.41
2022-07-27T06:11:34.378Z,42.00
2022-07-27T06:14:02.112Z,40.71
2022-07-27T06:16:30.308Z,40.95
2022-07-27T06:18:58.105Z,39.15
2022-07-27T06:21:28.245Z,40.36
2022-07-27T06:23:56.375Z,39.60
2022-07-27T06:26:24.172Z,38.77
2022-07-27T06:28:53.113Z,37.93
2022-07-27T06:31:21.352Z,39.25
2022-07-27T06:33:52.211Z,36.39
2022-07-27T06:36:20.322Z,36.87
2022-07-27T06:38:49.193Z,36.60
2022-07-27T06:41:17.918Z,35.97
2022-07-27T06:43:45.837Z,38.53
2022-07-27T06:46:14.653Z,36.03
2022-07-27T06:48:42.623Z,35.94
2022-07-27T06:51:10.587Z,38.19
2022-07-27T06:53:38.876Z,35.10
2022-07-27T06:56:08.544Z,35.72
2022-07-27T06:58:37.820Z,34.69
2022-07-27T07:01:06.197Z,33.53
2022-07-27T07:03:34.223Z,32.17
2022-07-27T07:06:02.421Z,33.95
2022-07-27T07:08:31.117Z,32.46
2022-07-27T07:10:58.994Z,33.82
2022-07-27T07:13:27.466Z,32.35
2022-07-27T07:15:56.714Z,34.91
2022-07-27T07:18:24.527Z,32.25
2022-07-27T07:20:52.523Z,31.62
2022-07-27T07:23:20.927Z,32.14
2022-07-27T07:25:48.688Z,31.96
2022-07-27T07:28:16.535Z,31.73
2022-07-27T07:30:44.670Z,30.79
2022-07-27T07:33:12.666Z,30.51
2022-07-27T07:36:13.511Z,28.92
2022-07-27T07:38:29.742Z,28.85
2022-07-27T07:40:57.626Z,28.53
2022-07-27T07:43:25.465Z,27.61
2022-07-27T07:45:53.775Z,27.74
2022-07-27T07:48:22.397Z,27.00
2022-07-27T07:50:51.860Z,27.04
2022-07-27T07:53:24.930Z,26.83
2022-07-27T07:55:53.654Z,27.85
2022-07-27T07:58:21.830Z,26.84
2022-07-27T08:00:50.343Z,26.52
2022-07-27T08:03:19.361Z,24.61
2022-07-27T08:05:47.494Z,25.48
2022-07-27T08:08:15.568Z,25.04
2022-07-27T08:10:43.807Z,25.74
2022-07-27T08:13:11.584Z,25.22
2022-07-27T08:15:39.474Z,25.06
2022-07-27T08:18:07.669Z,25.52
2022-07-27T08:20:35.584Z,25.07
2022-07-27T08:23:03.873Z,23.56
2022-07-27T08:25:32.554Z,24.38
2022-07-27T08:28:02.720Z,24.59
2022-07-27T08:30:32.929Z,24.65
2022-07-27T08:33:03.630Z,24.40
2022-07-27T08:35:33.565Z,26.21
2022-07-27T08:38:03.173Z,23.94
2022-07-27T08:40:47.575Z,24.75
2022-07-27T08:43:24.967Z,23.34
2022-07-27T08:45:56.083Z,23.49
2022-07-27T08:48:29.620Z,23.17
2022-07-27T08:50:57.635Z,23.09
2022-07-27T08:53:26.051Z,23.20
2022-07-27T08:56:04.313Z,23.52
2022-07-27T08:58:32.866Z,24.11
2022-07-27T09:01:01.056Z,23.14
2022-07-27T09:03:29.197Z,23.86
2022-07-27T09:05:58.636Z,22.73
2022-07-27T09:08:30.457Z,22.52
2022-07-27T09:11:00.644Z,22.67
2022-07-27T09:13:33.722Z,23.98
2022-07-27T09:16:23.816Z,22.24
2022-07-27T09:18:59.633Z,21.31
2022-07-27T09:21:28.935Z,21.13
2022-07-27T09:24:18.083Z,22.49
2022-07-27T09:27:04.463Z,23.25
2022-07-27T09:29:35.979Z,19.81
2022-07-27T09:32:17.070Z,20.24
2022-07-27T09:34:45.817Z,22.12
2022-07-27T09:37:24.174Z,22.22
2022-07-27T09:40:10.904Z,22.10
2022-07-27T09:45:33.953Z,20.99
2022-07-27T09:48:20.796Z,20.44
2022-07-27T09:51:02.130Z,21.42
2022-07-27T09:53:42.800Z,21.40
2022-07-27T09:56:13.643Z,20.98
2022-07-27T09:58:44.606Z,19.66
2022-07-27T10:01:24.607Z,21.67
2022-07-27T10:03:55.303Z,19.87
2022-07-27T10:06:25.309Z,20.61
2022-07-27T10:08:55.864Z,19.08
2022-07-27T10:11:24.505Z,20.16
2022-07-27T10:13:54.645Z,21.48
2022-07-27T10:16:29.135Z,19.09
2022-07-27T10:19:08.585Z,19.92
2022-07-27T10:21:39.113Z,21.97
2022-07-27T10:24:10.118Z,21.50
2022-07-27T10:26:40.892Z,20.98
2022-07-27T10:29:15.053Z,20.09
2022-07-27T10:31:52.794Z,19.91
2022-07-27T10:34:39.703Z,19.60
2022-07-27T10:37:12.233Z,19.28
2022-07-27T10:39:51.069Z,19.75
2022-07-27T10:42:24.997Z,22.04
2022-07-27T10:45:03.514Z,20.57
2022-07-27T10:47:40.082Z,19.92
2022-07-27T10:50:16.908Z,19.62
2022-07-27T10:52:45.314Z,19.43
2022-07-27T10:55:31.887Z,19.90
2022-07-27T10:58:03.333Z,19.32
2022-07-27T11:00:53.998Z,18.65
2022-07-27T11:03:42.615Z,17.76
2022-07-27T11:06:33.164Z,18.70
2022-07-27T11:11:53.906Z,17.54
2022-07-27T11:14:30.345Z,18.62
2022-07-27T11:20:00.846Z,19.30
2022-07-27T11:23:26.678Z,19.26
2022-07-27T11:25:28.038Z,19.66
2022-07-27T11:28:00.060Z,19.81
2022-07-27T11:30:31.162Z,19.25
2022-07-27T11:33:04.672Z,19.86
2022-07-27T11:35:34.192Z,20.26
2022-07-27T11:38:05.536Z,20.09
2022-07-27T11:41:05.881Z,21.80
2022-07-27T11:43:45.153Z,20.14
2022-07-27T11:46:23.143Z,21.56
2022-07-27T11:49:09.877Z,20.66
2022-07-27T11:51:46.416Z,20.77
2022-07-27T11:54:26.025Z,21.22
2022-07-27T11:56:55.317Z,22.29
2022-07-27T11:59:28.782Z,22.37
2022-07-27T12:02:02.113Z,20.70
2022-07-27T12:04:35.171Z,22.18
2022-07-27T12:07:20.240Z,20.90
2022-07-27T12:09:52.915Z,20.10
2022-07-27T12:12:28.307Z,21.29
2022-07-27T12:15:11.624Z,19.39
2022-07-27T12:17:59.263Z,19.52
2022-07-27T12:20:35.392Z,21.16
2022-07-27T12:23:08.010Z,18.31
2022-07-27T12:25:36.809Z,18.91
2022-07-27T12:28:18.030Z,21.42
2022-07-27T12:30:50.807Z,20.65
2022-07-27T12:33:30.643Z,20.48
2022-07-27T12:36:00.020Z,21.19
2022-07-27T12:38:48.864Z,21.56
2022-07-27T12:41:28.035Z,22.09
2022-07-27T12:44:05.018Z,21.68
2022-07-27T12:46:33.379Z,21.47
2022-07-27T12:49:01.545Z,20.96
2022-07-27T12:51:29.493Z,20.59
2022-07-27T12:54:01.114Z,20.25
2022-07-27T12:56:29.096Z,21.76
2022-07-27T12:59:04.694Z,19.82
2022-07-27T13:01:33.186Z,19.51
2022-07-27T13:04:01.296Z,20.67
2022-07-27T13:06:30.268Z,20.75
2022-07-27T13:08:58.436Z,18.71
2022-07-27T13:11:26.597Z,19.58
2022-07-27T13:13:54.377Z,19.30
2022-07-27T13:16:22.436Z,20.68
2022-07-27T13:18:50.629Z,21.57
2022-07-27T13:21:19.221Z,21.85
2022-07-27T13:23:47.476Z,21.33
2022-07-27T13:26:15.778Z,21.66
2022-07-27T13:28:43.606Z,20.70
2022-07-27T13:31:11.972Z,19.71
2022-07-27T13:33:40.305Z,21.49
2022-07-27T13:36:09.950Z,20.35
2022-07-27T13:38:38.433Z,20.39
2022-07-27T13:41:07.606Z,20.86
2022-07-27T13:43:36.045Z,19.93
2022-07-27T13:46:04.112Z,20.19
2022-07-27T13:48:32.737Z,20.28
2022-07-27T13:51:01.156Z,23.54
2022-07-27T13:53:29.702Z,21.23
2022-07-27T13:55:57.985Z,20.19
2022-07-27T13:58:25.973Z,19.85
2022-07-27T14:00:54.333Z,19.83
2022-07-27T14:03:23.054Z,20.57
2022-07-27T14:05:53.204Z,20.78
2022-07-27T14:08:26.187Z,21.29
2022-07-27T14:10:54.347Z,19.81
2022-07-27T14:13:22.487Z,20.54
2022-07-27T14:15:52.750Z,19.67
2022-07-27T14:18:25.347Z,20.12
2022-07-27T14:20:54.745Z,19.52
2022-07-27T14:23:23.746Z,19.58
2022-07-27T14:25:51.955Z,19.25
2022-07-27T14:28:20.622Z,19.83
2022-07-27T14:30:49.175Z,19.84
2022-07-27T14:33:17.861Z,20.24
2022-07-27T14:35:46.633Z,19.91
2022-07-27T14:38:24.746Z,19.44
2022-07-27T14:40:58.213Z,19.86
2022-07-27T14:43:26.784Z,20.48
2022-07-27T14:45:54.705Z,20.57
2022-07-27T14:48:32.396Z,19.74
2022-07-27T18:13:39.393Z,32.75
2022-07-27T18:16:11.769Z,32.75
2022-07-27T18:18:43.073Z,34.51
2022-07-27T18:21:13.425Z,33.94
2022-07-27T18:23:41.391Z,33.69
2022-07-27T18:26:12.047Z,34.09
2022-07-27T18:28:40.704Z,34.08
2022-07-27T18:31:10.444Z,34.55
2022-07-27T18:33:40.637Z,34.87
2022-07-27T18:36:09.153Z,35.40
2022-07-27T18:38:37.794Z,34.89
2022-07-27T18:41:05.653Z,34.97
2022-07-27T18:43:33.984Z,35.59
2022-07-27T18:46:02.244Z,36.58
2022-07-27T18:48:30.125Z,37.35
2022-07-27T18:50:58.476Z,37.88
2022-07-27T18:53:26.376Z,38.28
2022-07-27T18:55:56.447Z,38.96
2022-07-27T18:58:25.397Z,38.39
2022-07-27T19:00:54.555Z,39.15
2022-07-27T19:03:24.623Z,40.74
2022-07-27T19:05:54.735Z,42.36
2022-07-27T19:08:24.045Z,41.86
2022-07-27T19:10:53.228Z,42.61
2022-07-27T19:13:22.563Z,43.74
2022-07-27T19:15:52.748Z,43.66
2022-07-27T19:18:20.996Z,44.50
2022-07-27T19:20:50.350Z,45.02
2022-07-27T19:23:18.292Z,45.04
2022-07-27T19:25:46.174Z,45.01
2022-07-27T19:28:19.692Z,44.93
2022-07-27T19:30:47.629Z,45.74
2022-07-27T19:33:16.316Z,46.59
2022-07-27T19:35:44.485Z,47.62
2022-07-27T19:38:13.293Z,47.00
2022-07-27T19:40:44.711Z,47.69
2022-07-27T19:43:13.684Z,47.53
2022-07-27T19:45:42.343Z,47.33
2022-07-27T19:48:10.863Z,48.97
2022-07-27T19:50:39.959Z,49.17
2022-07-27T19:53:08.595Z,48.48
2022-07-27T19:55:36.855Z,49.56
2022-07-27T19:58:04.812Z,49.02
2022-07-27T20:00:33.194Z,48.78
2022-07-27T20:03:01.468Z,49.51
2022-07-27T20:05:29.460Z,50.73
2022-07-27T20:07:57.358Z,50.43
2022-07-27T20:10:26.254Z,50.57
2022-07-27T20:12:54.135Z,49.98
2022-07-27T20:15:22.784Z,50.65
2022-07-27T20:17:51.439Z,50.44
2022-07-27T20:20:19.740Z,51.92
2022-07-27T20:22:47.949Z,51.51
2022-07-27T20:25:16.416Z,51.52
2022-07-27T20:27:45.623Z,51.14
2022-07-27T20:30:17.252Z,50.50
2022-07-27T20:32:47.848Z,49.60
2022-07-27T20:35:16.258Z,50.03
2022-07-27T20:37:44.834Z,48.64
2022-07-27T20:40:13.325Z,49.50
2022-07-27T20:42:41.975Z,47.88
2022-07-27T20:45:11.636Z,47.81
2022-07-27T20:47:40.065Z,48.03
2022-07-27T20:50:10.447Z,47.25
2022-07-27T20:52:40.024Z,46.80
2022-07-27T20:55:09.314Z,47.10
2022-07-27T20:57:38.025Z,47.49
2022-07-27T21:00:07.385Z,46.59
2022-07-27T21:02:35.990Z,45.65
2022-07-27T21:05:04.327Z,47.46
2022-07-27T21:07:32.108Z,47.62
2022-07-27T21:10:00.314Z,47.62
2022-07-27T21:12:28.123Z,48.69
2022-07-27T21:14:55.928Z,47.66
2022-07-27T21:17:24.135Z,48.32
2022-07-27T21:19:51.964Z,48.60
2022-07-27T21:22:20.675Z,48.60
2022-07-27T21:24:49.766Z,49.04
2022-07-27T21:27:20.979Z,48.03
2022-07-27T21:29:49.911Z,49.38
2022-07-27T21:32:18.347Z,48.87
2022-07-27T21:34:46.223Z,48.64
2022-07-27T21:37:14.405Z,49.14
2022-07-27T21:39:42.344Z,50.30
2022-07-27T21:42:10.061Z,48.90
2022-07-27T21:44:38.749Z,49.76
2022-07-27T21:47:13.147Z,50.18
2022-07-27T21:49:42.333Z,49.78
2022-07-27T21:52:11.466Z,49.43
2022-07-27T21:54:39.449Z,50.84
2022-07-27T21:57:07.575Z,49.99
2022-07-27T21:59:35.353Z,50.62
2022-07-27T22:02:03.286Z,50.68
2022-07-27T22:04:31.603Z,49.65
2022-07-27T22:06:59.905Z,49.51
2022-07-27T22:09:28.551Z,49.85
2022-07-27T22:11:56.806Z,51.00
2022-07-27T22:14:24.678Z,48.31
2022-07-27T22:16:53.268Z,48.41
2022-07-27T22:19:21.413Z,47.10
2022-07-27T22:21:49.497Z,47.94
2022-07-27T22:24:17.967Z,46.58
2022-07-27T22:26:46.208Z,47.50
2022-07-27T22:29:13.963Z,46.60
2022-07-27T22:31:42.199Z,46.73
2022-07-27T22:34:10.545Z,48.14
2022-07-27T22:36:38.607Z,48.79
2022-07-27T22:39:06.399Z,47.66
2022-07-27T22:41:34.768Z,46.92
2022-07-27T22:44:02.625Z,49.28
2022-07-27T22:46:30.372Z,48.39
2022-07-27T22:48:58.875Z,52.55
2022-07-27T22:51:26.748Z,51.70
2022-07-27T22:54:15.128Z,54.75
2022-07-27T22:56:43.316Z,56.06
2022-07-27T22:59:11.015Z,55.48
2022-07-27T23:01:46.474Z,56.73
2022-07-27T23:04:16.732Z,56.04
2022-07-27T23:06:45.684Z,55.47
2022-07-27T23:09:13.604Z,53.20
2022-07-27T23:11:42.198Z,49.87
2022-07-27T23:14:11.747Z,47.14
2022-07-27T23:16:39.975Z,47.12
2022-07-27T23:19:08.695Z,47.98
2022-07-27T23:21:37.489Z,46.77
2022-07-27T23:24:05.504Z,46.68
2022-07-27T23:26:33.626Z,48.09
2022-07-27T23:29:02.313Z,46.60
2022-07-27T23:31:30.255Z,46.10
2022-07-27T23:33:58.145Z,47.53
2022-07-27T23:36:26.455Z,46.29
2022-07-27T23:38:54.334Z,46.80
2022-07-27T23:41:22.123Z,45.33
2022-07-27T23:43:50.235Z,43.78
2022-07-27T23:46:18.108Z,46.88
2022-07-27T23:48:45.867Z,45.59
2022-07-27T23:51:18.616Z,45.92
2022-07-27T23:53:47.768Z,45.88
2022-07-27T23:56:16.325Z,48.04
2022-07-27T23:58:45.024Z,47.46
